createdAt,value
2023-01-30T00:01:44.055Z,33.25
2023-01-30T00:04:17.117Z,29.25
2023-01-30T00:09:14.706Z,33.00
2023-01-30T00:11:42.396Z,33.65
2023-01-30T00:14:09.905Z,31.20
2023-01-30T00:16:36.602Z,32.58
2023-01-30T00:19:03.376Z,30.30
2023-01-30T00:21:32.186Z,30.38
2023-01-30T00:24:00.818Z,28.52
2023-01-30T00:26:27.589Z,31.88
2023-01-30T00:28:54.226Z,29.00
2023-01-30T00:31:20.924Z,30.45
2023-01-30T00:33:47.597Z,31.35
2023-01-30T00:36:14.323Z,28.55
2023-01-30T00:38:40.927Z,30.92
2023-01-30T00:41:07.689Z,29.20
2023-01-30T00:46:51.393Z,29.65
2023-01-30T00:49:18.393Z,28.85
2023-01-30T00:51:44.962Z,26.67
2023-01-30T00:54:11.510Z,28.25
2023-01-30T00:56:38.101Z,27.35
2023-01-30T00:59:04.758Z,27.95
2023-01-30T01:01:31.304Z,27.13
2023-01-30T01:03:58.171Z,27.63
2023-01-30T01:06:24.743Z,27.75
2023-01-30T01:08:51.472Z,25.70
2023-01-30T01:11:24.648Z,26.17
2023-01-30T01:13:57.012Z,28.13
2023-01-30T01:16:24.657Z,27.58
2023-01-30T01:18:52.214Z,28.73
2023-01-30T01:21:20.656Z,28.17
2023-01-30T01:23:51.711Z,27.42
2023-01-30T01:26:18.671Z,29.77
2023-01-30T01:28:45.380Z,28.13
2023-01-30T01:31:16.359Z,29.25
2023-01-30T01:33:43.417Z,26.00
2023-01-30T01:36:10.250Z,25.75
2023-01-30T01:38:36.832Z,26.13
2023-01-30T01:43:35.488Z,28.88
2023-01-30T01:46:15.234Z,26.98
2023-01-30T01:48:47.390Z,29.55
2023-01-30T01:51:29.974Z,26.38
2023-01-30T01:56:32.696Z,23.40
2023-01-30T01:59:08.248Z,26.25
2023-01-30T02:01:35.454Z,28.38
2023-01-30T02:06:32.754Z,24.38
2023-01-30T02:11:41.714Z,24.58
2023-01-30T02:14:08.696Z,27.80
2023-01-30T02:16:37.295Z,26.08
2023-01-30T02:19:19.877Z,26.88
2023-01-30T02:22:15.856Z,26.20
2023-01-30T02:24:51.266Z,27.95
2023-01-30T02:27:17.763Z,27.92
2023-01-30T02:32:38.755Z,27.50
2023-01-30T02:38:17.115Z,27.10
2023-01-30T02:41:11.750Z,26.08
2023-01-30T02:43:51.168Z,25.83
2023-01-30T02:46:31.969Z,28.60
2023-01-30T02:49:20.014Z,25.13
2023-01-30T02:51:49.483Z,28.10
2023-01-30T02:54:16.378Z,27.27
2023-01-30T02:56:46.262Z,26.92
2023-01-30T02:59:16.178Z,26.65
2023-01-30T03:04:57.016Z,24.13
2023-01-30T03:09:58.726Z,27.23
2023-01-30T03:12:33.841Z,27.02
2023-01-30T03:17:34.191Z,25.23
2023-01-30T03:22:27.359Z,24.15
2023-01-30T03:24:54.572Z,23.27
2023-01-30T03:27:22.316Z,21.45
2023-01-30T03:29:48.893Z,24.00
2023-01-30T03:32:15.611Z,20.63
2023-01-30T03:34:42.122Z,20.38
2023-01-30T03:37:09.073Z,24.23
2023-01-30T03:39:35.643Z,21.83
2023-01-30T03:44:29.274Z,23.10
2023-01-30T03:46:55.785Z,21.95
2023-01-30T03:49:22.522Z,22.85
2023-01-30T03:51:49.070Z,23.10
2023-01-30T03:54:15.660Z,22.67
2023-01-30T03:56:42.343Z,21.88
2023-01-30T03:59:09.134Z,20.70
2023-01-30T04:01:35.872Z,19.00
2023-01-30T04:06:29.031Z,19.38
2023-01-30T04:11:22.515Z,19.58
2023-01-30T04:13:49.091Z,18.63
2023-01-30T04:16:20.072Z,19.05
2023-01-30T04:18:47.363Z,18.25
2023-01-30T04:21:15.566Z,20.48
2023-01-30T04:23:43.099Z,19.92
2023-01-30T04:26:11.080Z,19.23
2023-01-30T04:28:38.414Z,21.85
2023-01-30T04:31:06.676Z,21.25
2023-01-30T04:33:36.965Z,19.95
2023-01-30T04:36:05.376Z,17.15
2023-01-30T04:38:34.135Z,16.50
2023-01-30T04:41:01.687Z,21.05
2023-01-30T04:43:29.911Z,17.30
2023-01-30T04:45:57.257Z,16.65
2023-01-30T04:48:25.606Z,14.63
2023-01-30T04:50:55.262Z,15.18
2023-01-30T04:55:50.525Z,15.70
2023-01-30T04:58:19.876Z,16.30
2023-01-30T05:00:48.056Z,15.98
2023-01-30T05:03:16.493Z,16.45
2023-01-30T05:05:47.726Z,19.92
2023-01-30T05:08:16.224Z,13.52
2023-01-30T05:10:43.803Z,18.42
2023-01-30T05:13:11.193Z,18.33
2023-01-30T05:15:40.463Z,18.40
2023-01-30T05:18:07.868Z,17.10
2023-01-30T05:20:35.229Z,18.65
2023-01-30T05:23:02.894Z,15.48
2023-01-30T05:25:30.348Z,15.88
2023-01-30T05:27:57.739Z,16.35
2023-01-30T05:32:52.415Z,18.52
2023-01-30T05:35:19.947Z,16.05
2023-01-30T05:40:18.777Z,15.93
2023-01-30T05:42:45.845Z,16.92
2023-01-30T05:45:12.993Z,18.15
2023-01-30T05:47:40.304Z,20.23
2023-01-30T05:52:35.400Z,18.58
2023-01-30T05:55:02.752Z,19.30
2023-01-30T05:57:29.972Z,18.63
2023-01-30T05:59:57.247Z,17.13
2023-01-30T06:02:24.532Z,19.33
2023-01-30T06:07:19.061Z,17.40
2023-01-30T06:09:46.498Z,18.50
2023-01-30T06:14:41.735Z,16.52
2023-01-30T06:19:39.386Z,15.38
2023-01-30T06:22:06.809Z,16.42
2023-01-30T06:24:34.047Z,16.95
2023-01-30T06:27:01.648Z,14.95
2023-01-30T06:29:29.332Z,16.30
2023-01-30T06:31:56.936Z,15.75
2023-01-30T06:34:24.423Z,16.17
2023-01-30T06:36:51.535Z,15.70
2023-01-30T06:39:19.026Z,13.93
2023-01-30T06:41:46.309Z,15.10
2023-01-30T06:46:41.799Z,16.70
2023-01-30T06:51:39.900Z,15.52
2023-01-30T06:54:07.604Z,13.68
2023-01-30T06:56:34.953Z,16.98
2023-01-30T06:59:02.323Z,16.98
2023-01-30T07:01:29.773Z,15.80
2023-01-30T07:03:57.274Z,13.60
2023-01-30T07:06:26.804Z,15.75
2023-01-30T07:08:54.224Z,15.43
2023-01-30T07:11:21.381Z,17.80
2023-01-30T07:13:48.698Z,17.40
2023-01-30T07:16:15.859Z,14.40
2023-01-30T07:18:43.202Z,17.13
2023-01-30T07:21:11.601Z,17.17
2023-01-30T07:23:40.937Z,17.83
2023-01-30T07:26:08.538Z,15.35
2023-01-30T07:28:38.567Z,15.52
2023-01-30T07:31:08.907Z,16.17
2023-01-30T07:33:38.871Z,18.10
2023-01-30T07:36:06.480Z,14.82
2023-01-30T07:38:34.207Z,18.52
2023-01-30T07:41:03.858Z,15.88
2023-01-30T07:43:31.680Z,17.02
2023-01-30T07:46:00.719Z,16.83
2023-01-30T07:48:28.286Z,15.65
2023-01-30T07:51:01.424Z,15.55
2023-01-30T07:53:32.863Z,15.00
2023-01-30T07:58:29.893Z,13.60
2023-01-30T08:01:00.747Z,10.82
2023-01-30T08:03:27.917Z,14.60
2023-01-30T08:05:54.661Z,14.57
2023-01-30T08:08:22.125Z,13.25
2023-01-30T08:10:49.593Z,13.18
2023-01-30T08:13:19.656Z,12.63
2023-01-30T08:15:46.299Z,13.10
2023-01-30T08:20:39.611Z,13.63
2023-01-30T08:23:06.670Z,11.55
2023-01-30T08:25:34.624Z,13.77
2023-01-30T08:28:01.995Z,16.63
2023-01-30T08:30:30.617Z,14.50
2023-01-30T08:32:58.495Z,14.85
2023-01-30T08:37:52.333Z,12.88
2023-01-30T08:40:21.341Z,11.52
2023-01-30T08:42:48.279Z,11.10
2023-01-30T08:47:47.148Z,12.55
2023-01-30T08:52:40.974Z,39.00
2023-01-30T08:55:09.421Z,14.13
2023-01-30T08:57:36.559Z,16.90
2023-01-30T09:00:04.283Z,13.98
2023-01-30T09:02:31.214Z,14.57
2023-01-30T09:04:58.267Z,13.43
2023-01-30T09:07:26.399Z,14.00
2023-01-30T09:09:55.879Z,14.68
2023-01-30T09:12:23.743Z,14.45
2023-01-30T09:14:53.336Z,17.42
2023-01-30T09:17:20.785Z,14.05
2023-01-30T09:19:47.883Z,13.57
2023-01-30T09:24:44.882Z,15.13
2023-01-30T09:27:11.483Z,13.65
2023-01-30T09:29:39.059Z,10.50
2023-01-30T09:32:05.867Z,13.23
2023-01-30T09:34:32.697Z,11.27
2023-01-30T09:37:04.827Z,13.05
2023-01-30T09:39:32.353Z,12.82
2023-01-30T09:42:05.212Z,13.02
2023-01-30T09:45:05.525Z,11.13
2023-01-30T09:48:02.531Z,11.18
2023-01-30T09:51:03.734Z,10.15
2023-01-30T09:53:50.709Z,13.95
2023-01-30T09:56:17.551Z,11.57
2023-01-30T09:59:00.264Z,11.40
2023-01-30T10:01:51.444Z,10.73
2023-01-30T10:05:00.664Z,11.05
2023-01-30T10:08:02.430Z,11.65
2023-01-30T10:11:00.840Z,11.73
2023-01-30T10:13:46.675Z,9.00
2023-01-30T10:16:27.228Z,9.20
2023-01-30T10:19:34.662Z,11.25
2023-01-30T10:22:39.420Z,9.32
2023-01-30T10:25:13.611Z,8.98
2023-01-30T10:27:50.101Z,11.23
2023-01-30T10:30:18.576Z,8.13
2023-01-30T10:33:09.151Z,14.68
2023-01-30T10:35:41.703Z,7.43
2023-01-30T10:41:11.790Z,8.57
2023-01-30T10:43:50.520Z,9.57
2023-01-30T10:46:31.081Z,9.68
2023-01-30T10:49:16.548Z,8.20
2023-01-30T10:51:55.151Z,9.25
2023-01-30T10:54:36.472Z,10.60
2023-01-30T10:57:25.696Z,6.68
2023-01-30T11:00:04.276Z,8.70
2023-01-30T11:02:51.394Z,7.20
2023-01-30T11:05:25.948Z,9.10
2023-01-30T11:07:52.871Z,6.22
2023-01-30T11:10:21.756Z,7.82
2023-01-30T11:12:54.151Z,7.50
2023-01-30T11:15:24.864Z,7.85
2023-01-30T11:18:22.103Z,9.98
2023-01-30T11:21:10.364Z,8.73
2023-01-30T11:23:43.497Z,8.20
2023-01-30T11:26:46.906Z,8.93
2023-01-30T11:29:32.808Z,8.38
2023-01-30T11:32:28.608Z,6.75
2023-01-30T11:35:28.040Z,8.38
2023-01-30T11:38:12.064Z,8.10
2023-01-30T11:43:13.588Z,8.90
2023-01-30T11:45:49.318Z,7.38
2023-01-30T11:48:33.178Z,8.40
2023-01-30T11:51:13.078Z,8.25
2023-01-30T11:53:48.194Z,9.05
2023-01-30T11:56:25.004Z,8.10
2023-01-30T11:58:58.901Z,8.68
2023-01-30T12:01:37.111Z,8.30
2023-01-30T12:04:08.279Z,9.00
2023-01-30T12:06:38.022Z,9.27
2023-01-30T12:09:05.431Z,9.02
2023-01-30T12:11:34.886Z,9.60
2023-01-30T12:14:14.998Z,10.23
2023-01-30T12:16:51.879Z,8.68
2023-01-30T12:22:21.741Z,8.88
2023-01-30T12:25:19.586Z,8.20
2023-01-30T12:27:56.203Z,6.43
2023-01-30T12:30:35.081Z,9.50
2023-01-30T12:33:05.322Z,9.77
2023-01-30T12:36:10.722Z,9.80
2023-01-30T12:38:56.574Z,10.23
2023-01-30T12:41:40.801Z,8.85
2023-01-30T12:47:24.113Z,8.40
2023-01-30T12:50:02.780Z,10.35
2023-01-30T12:52:43.395Z,10.85
2023-01-30T12:55:44.945Z,7.95
2023-01-30T12:58:20.310Z,7.60
2023-01-30T13:01:14.385Z,8.90
2023-01-30T13:04:35.772Z,8.95
2023-01-30T13:07:33.331Z,9.25
2023-01-30T13:10:13.455Z,7.35
2023-01-30T13:13:10.799Z,10.05
2023-01-30T13:16:06.732Z,9.10
2023-01-30T13:18:42.153Z,8.70
2023-01-30T13:21:23.487Z,8.88
2023-01-30T13:26:36.522Z,8.65
2023-01-30T13:29:15.212Z,8.85
2023-01-30T13:32:01.390Z,10.73
2023-01-30T13:34:38.494Z,11.55
2023-01-30T13:37:12.745Z,10.50
2023-01-30T13:39:58.618Z,11.02
2023-01-30T13:42:28.964Z,11.05
2023-01-30T13:44:57.537Z,10.13
2023-01-30T13:47:42.981Z,9.90
2023-01-30T13:50:27.484Z,8.93
2023-01-30T13:55:48.063Z,8.85
2023-01-30T13:58:25.076Z,9.27
2023-01-30T14:00:55.262Z,9.85
2023-01-30T14:06:00.933Z,9.70
2023-01-30T14:08:43.435Z,9.10
2023-01-30T14:11:46.737Z,7.63
2023-01-30T14:14:19.162Z,9.82
2023-01-30T14:16:49.156Z,9.90
2023-01-30T14:19:42.180Z,9.55
2023-01-30T14:22:46.690Z,9.90
2023-01-30T14:25:25.745Z,9.35
2023-01-30T14:28:13.271Z,9.73
2023-01-30T14:30:53.940Z,10.23
2023-01-30T14:33:23.326Z,10.90
2023-01-30T14:36:15.681Z,9.90
2023-01-30T14:38:44.805Z,8.93
2023-01-30T14:41:26.035Z,8.68
2023-01-30T14:46:20.442Z,10.30
2023-01-30T14:49:23.239Z,11.52
2023-01-30T14:51:50.398Z,11.40
2023-01-30T14:54:17.704Z,9.68
2023-01-30T14:57:01.628Z,8.20
2023-01-30T15:00:11.477Z,8.82
2023-01-30T15:02:53.035Z,11.48
2023-01-30T15:05:32.436Z,11.10
2023-01-30T15:08:15.047Z,9.77
2023-01-30T15:11:26.086Z,8.98
2023-01-30T15:17:08.926Z,8.77
2023-01-30T15:19:48.941Z,8.77
2023-01-30T15:28:01.188Z,8.27
2023-01-30T15:30:28.597Z,8.85
2023-01-30T15:33:22.964Z,9.50
2023-01-30T15:35:56.360Z,6.93
2023-01-30T15:38:25.386Z,7.95
2023-01-30T15:40:56.643Z,7.40
2023-01-30T15:46:26.118Z,8.88
2023-01-30T15:49:12.359Z,8.98
2023-01-30T15:51:39.227Z,9.88
2023-01-30T15:54:11.190Z,9.38
2023-01-30T15:56:39.928Z,7.95
2023-01-30T15:59:08.038Z,9.88
2023-01-30T16:01:34.736Z,11.45
2023-01-30T16:04:05.067Z,9.32
2023-01-30T16:06:36.916Z,10.32
2023-01-30T16:11:45.115Z,11.30
2023-01-30T16:14:20.414Z,11.02
2023-01-30T16:17:00.904Z,10.00
2023-01-30T16:19:33.630Z,10.52
2023-01-30T16:22:53.922Z,13.38
2023-01-30T16:25:39.302Z,11.43
2023-01-30T16:28:06.166Z,10.32
2023-01-30T16:30:32.925Z,11.82
2023-01-30T16:33:18.477Z,12.93
2023-01-30T16:35:46.215Z,9.70
2023-01-30T16:38:36.905Z,11.68
2023-01-30T16:41:04.919Z,12.90
2023-01-30T16:43:35.039Z,10.68
2023-01-30T16:46:38.941Z,11.65
2023-01-30T16:49:05.970Z,10.32
2023-01-30T16:51:33.497Z,11.40
2023-01-30T16:54:04.736Z,9.95
2023-01-30T16:59:09.206Z,13.10
2023-01-30T17:01:43.796Z,10.32
2023-01-30T17:04:20.706Z,11.00
2023-01-30T17:06:58.110Z,23.15
2023-01-30T17:09:42.015Z,11.57
2023-01-30T17:12:26.760Z,9.52
2023-01-30T17:17:47.125Z,10.77
2023-01-30T17:22:47.077Z,10.65
2023-01-30T17:25:54.984Z,10.90
2023-01-30T17:28:24.233Z,11.73
2023-01-30T17:30:51.193Z,10.80
2023-01-30T17:35:45.104Z,10.20
2023-01-30T17:38:12.698Z,10.27
2023-01-30T17:40:39.740Z,12.70
2023-01-30T17:43:06.547Z,10.55
2023-01-30T17:45:33.681Z,10.65
2023-01-30T17:50:28.493Z,10.18
2023-01-30T17:52:55.315Z,9.85
2023-01-30T17:55:22.229Z,9.70
2023-01-30T17:57:53.091Z,10.50
2023-01-30T18:00:21.803Z,10.38
2023-01-30T18:02:48.708Z,11.45
2023-01-30T18:05:15.594Z,11.05
2023-01-30T18:07:42.561Z,11.10
2023-01-30T18:10:15.091Z,12.02
2023-01-30T18:12:42.053Z,10.88
2023-01-30T18:15:10.081Z,8.65
2023-01-30T18:17:47.142Z,10.68
2023-01-30T18:20:17.200Z,10.20
2023-01-30T18:22:44.348Z,10.52
2023-01-30T18:25:13.450Z,9.65
2023-01-30T18:27:44.248Z,11.57
2023-01-30T18:30:14.071Z,13.00
2023-01-30T18:32:51.960Z,10.30
2023-01-30T18:37:46.844Z,11.88
2023-01-30T18:40:15.173Z,8.68
2023-01-30T18:42:41.892Z,8.00
2023-01-30T18:45:11.511Z,7.93
2023-01-30T18:47:38.455Z,9.15
2023-01-30T18:50:11.216Z,10.73
2023-01-30T18:52:37.878Z,7.50
2023-01-30T18:55:04.907Z,7.80
2023-01-30T18:57:31.502Z,10.52
2023-01-30T18:59:58.121Z,9.15
2023-01-30T19:02:24.833Z,8.13
2023-01-30T19:04:53.610Z,8.35
2023-01-30T19:07:20.985Z,10.07
2023-01-30T19:09:48.138Z,7.53
2023-01-30T19:12:33.259Z,9.30
2023-01-30T19:15:02.149Z,9.90
2023-01-30T19:17:31.895Z,10.02
2023-01-30T19:20:01.168Z,8.57
2023-01-30T19:22:27.747Z,9.23
2023-01-30T19:24:54.279Z,8.55
2023-01-30T19:27:21.131Z,8.23
2023-01-30T19:29:50.090Z,10.30
2023-01-30T19:34:43.701Z,7.13
2023-01-30T19:37:10.449Z,10.05
2023-01-30T19:39:36.985Z,8.88
2023-01-30T19:42:03.685Z,9.18
2023-01-30T19:44:30.492Z,10.25
2023-01-30T19:46:57.049Z,8.85
2023-01-30T19:51:54.708Z,9.52
2023-01-30T19:56:49.275Z,9.45
2023-01-30T19:59:16.805Z,12.65
2023-01-30T20:01:43.838Z,11.32
2023-01-30T20:04:11.085Z,11.10
2023-01-30T20:06:38.671Z,14.15
2023-01-30T20:09:11.041Z,12.15
2023-01-30T20:11:39.680Z,13.70
2023-01-30T20:16:35.941Z,13.43
2023-01-30T20:19:06.275Z,10.68
2023-01-30T20:21:33.495Z,12.40
2023-01-30T20:24:01.052Z,11.48
2023-01-30T20:26:31.241Z,11.27
2023-01-30T20:28:58.490Z,11.07
2023-01-30T20:33:57.359Z,10.75
2023-01-30T20:36:26.160Z,10.48
2023-01-30T20:38:54.016Z,12.57
2023-01-30T20:43:53.474Z,13.65
2023-01-30T20:46:26.836Z,13.50
2023-01-30T20:48:55.001Z,12.45
2023-01-30T20:53:56.839Z,12.35
2023-01-30T20:56:26.102Z,12.23
2023-01-30T20:58:52.885Z,13.85
2023-01-30T21:03:52.496Z,12.43
2023-01-30T21:08:52.754Z,16.67
2023-01-30T21:11:20.893Z,13.13
2023-01-30T21:13:47.963Z,12.73
2023-01-30T21:18:50.212Z,13.40
2023-01-30T21:23:55.520Z,15.50
2023-01-30T21:28:51.496Z,11.77
2023-01-30T21:31:21.513Z,13.38
2023-01-30T21:33:49.682Z,14.32
2023-01-30T21:42:05.003Z,16.75
2023-01-30T21:44:36.816Z,13.13
2023-01-30T21:47:09.793Z,13.60
2023-01-30T21:49:37.041Z,13.07
2023-01-30T21:52:04.171Z,11.75
2023-01-30T21:54:33.078Z,12.90
2023-01-30T21:57:02.807Z,10.38
2023-01-30T21:59:31.217Z,13.77
2023-01-30T22:01:57.953Z,15.90
2023-01-30T22:06:51.973Z,12.13
2023-01-30T22:11:46.146Z,10.00
2023-01-30T22:14:14.139Z,12.52
2023-01-30T22:16:41.713Z,12.77
2023-01-30T22:19:08.651Z,13.07
2023-01-30T22:21:38.850Z,12.73
2023-01-30T22:24:08.457Z,11.52
2023-01-30T22:26:36.478Z,13.00
2023-01-30T22:29:09.851Z,12.98
2023-01-30T22:31:38.701Z,11.10
2023-01-30T22:34:05.563Z,11.00
2023-01-30T22:36:33.991Z,13.13
2023-01-30T22:39:01.672Z,11.65
2023-01-30T22:41:31.958Z,10.95
2023-01-30T22:43:59.816Z,12.05
2023-01-30T22:46:35.189Z,11.98
2023-01-30T22:49:04.123Z,13.95
2023-01-30T22:51:33.423Z,11.50
2023-01-30T22:54:07.721Z,10.07
2023-01-30T22:56:39.917Z,16.95
2023-01-30T22:59:07.162Z,12.70
2023-01-30T23:01:39.399Z,11.05
2023-01-30T23:04:15.145Z,14.20
2023-01-30T23:06:42.439Z,11.38
2023-01-30T23:09:11.327Z,15.27
2023-01-30T23:12:06.814Z,12.65
2023-01-30T23:14:33.772Z,13.13
2023-01-30T23:17:00.393Z,13.25
2023-01-30T23:19:26.988Z,15.23
2023-01-30T23:21:53.633Z,14.52
2023-01-30T23:24:21.583Z,15.25
2023-01-30T23:26:50.870Z,16.73
2023-01-30T23:29:19.754Z,13.23
2023-01-30T23:31:47.713Z,14.43
2023-01-30T23:36:44.797Z,13.32
2023-01-30T23:39:13.473Z,12.88
2023-01-30T23:41:41.099Z,14.38
2023-01-30T23:44:08.276Z,16.85
2023-01-30T23:46:37.692Z,10.75
2023-01-30T23:49:07.030Z,15.57
2023-01-30T23:51:36.384Z,14.13
2023-01-30T23:54:04.495Z,15.40
2023-01-30T23:56:33.021Z,13.00
2023-01-30T23:59:00.167Z,15.65
